sensor_id;sensor_type;location;lat;lon;timestamp;temperature;humidity
68189;DHT22;66299;47.514;19.218;2023-01-28T00:01:59;1.02;89.33
68189;DHT22;66299;47.514;19.218;2023-01-28T00:04:39;0.99;89.48
68189;DHT22;66299;47.514;19.218;2023-01-28T00:07:12;0.99;89.54
68189;DHT22;66299;47.514;19.218;2023-01-28T00:09:41;1.00;89.46
68189;DHT22;66299;47.514;19.218;2023-01-28T00:12:14;1.00;89.17
68189;DHT22;66299;47.514;19.218;2023-01-28T00:14:46;1.03;88.83
68189;DHT22;66299;47.514;19.218;2023-01-28T00:17:16;1.02;89.04
68189;DHT22;66299;47.514;19.218;2023-01-28T00:19:47;1.04;88.98
68189;DHT22;66299;47.514;19.218;2023-01-28T00:22:15;1.00;89.27
68189;DHT22;66299;47.514;19.218;2023-01-28T00:24:45;1.02;88.90
68189;DHT22;66299;47.514;19.218;2023-01-28T00:27:15;0.99;88.85
68189;DHT22;66299;47.514;19.218;2023-01-28T00:29:45;0.96;88.95
68189;DHT22;66299;47.514;19.218;2023-01-28T00:32:14;0.99;88.82
68189;DHT22;66299;47.514;19.218;2023-01-28T00:34:44;1.03;88.91
68189;DHT22;66299;47.514;19.218;2023-01-28T00:37:17;0.97;89.31
68189;DHT22;66299;47.514;19.218;2023-01-28T00:39:49;0.96;89.08
68189;DHT22;66299;47.514;19.218;2023-01-28T00:42:17;0.99;89.08
68189;DHT22;66299;47.514;19.218;2023-01-28T00:44:53;1.03;88.47
68189;DHT22;66299;47.514;19.218;2023-01-28T00:47:27;1.06;88.24
68189;DHT22;66299;47.514;19.218;2023-01-28T00:49:55;1.03;88.35
68189;DHT22;66299;47.514;19.218;2023-01-28T00:52:29;1.03;88.32
68189;DHT22;66299;47.514;19.218;2023-01-28T00:55:01;1.10;88.09
68189;DHT22;66299;47.514;19.218;2023-01-28T00:57:30;0.99;88.42
68189;DHT22;66299;47.514;19.218;2023-01-28T00:59:58;1.03;88.18
68189;DHT22;66299;47.514;19.218;2023-01-28T01:02:28;1.00;88.29
68189;DHT22;66299;47.514;19.218;2023-01-28T01:04:59;1.03;88.12
68189;DHT22;66299;47.514;19.218;2023-01-28T01:07:34;0.97;88.36
68189;DHT22;66299;47.514;19.218;2023-01-28T01:10:10;0.99;88.04
68189;DHT22;66299;47.514;19.218;2023-01-28T01:12:41;0.99;87.92
68189;DHT22;66299;47.514;19.218;2023-01-28T01:15:12;1.03;88.13
68189;DHT22;66299;47.514;19.218;2023-01-28T01:17:43;0.99;88.25
68189;DHT22;66299;47.514;19.218;2023-01-28T01:20:13;1.03;87.82
68189;DHT22;66299;47.514;19.218;2023-01-28T01:22:45;0.99;87.88
68189;DHT22;66299;47.514;19.218;2023-01-28T01:25:15;1.02;87.68
68189;DHT22;66299;47.514;19.218;2023-01-28T01:27:46;1.03;87.55
68189;DHT22;66299;47.514;19.218;2023-01-28T01:30:15;1.03;87.55
68189;DHT22;66299;47.514;19.218;2023-01-28T01:32:48;1.03;87.65
68189;DHT22;66299;47.514;19.218;2023-01-28T01:35:17;0.99;87.78
68189;DHT22;66299;47.514;19.218;2023-01-28T01:37:47;0.97;88.18
68189;DHT22;66299;47.514;19.218;2023-01-28T01:40:18;0.99;88.00
68189;DHT22;66299;47.514;19.218;2023-01-28T01:42:48;1.02;87.64
68189;DHT22;66299;47.514;19.218;2023-01-28T01:45:18;1.00;88.01
68189;DHT22;66299;47.514;19.218;2023-01-28T01:47:46;1.00;87.97
68189;DHT22;66299;47.514;19.218;2023-01-28T01:50:20;1.06;87.58
68189;DHT22;66299;47.514;19.218;2023-01-28T01:52:55;0.99;88.16
68189;DHT22;66299;47.514;19.218;2023-01-28T01:55:26;0.95;88.04
68189;DHT22;66299;47.514;19.218;2023-01-28T01:58:00;0.99;88.05
68189;DHT22;66299;47.514;19.218;2023-01-28T02:00:37;0.91;88.70
68189;DHT22;66299;47.514;19.218;2023-01-28T02:03:06;0.92;88.72
68189;DHT22;66299;47.514;19.218;2023-01-28T02:05:37;0.95;88.90
68189;DHT22;66299;47.514;19.218;2023-01-28T02:08:12;0.92;89.04
68189;DHT22;66299;47.514;19.218;2023-01-28T02:10:53;0.91;88.89
68189;DHT22;66299;47.514;19.218;2023-01-28T02:13:24;0.93;88.79
68189;DHT22;66299;47.514;19.218;2023-01-28T02:15:56;0.92;88.94
68189;DHT22;66299;47.514;19.218;2023-01-28T02:18:27;0.99;88.93
68189;DHT22;66299;47.514;19.218;2023-01-28T02:21:03;0.96;89.28
68189;DHT22;66299;47.514;19.218;2023-01-28T02:23:46;0.95;88.90
68189;DHT22;66299;47.514;19.218;2023-01-28T02:29:08;0.92;89.12
68189;DHT22;66299;47.514;19.218;2023-01-28T02:31:38;0.89;89.17
68189;DHT22;66299;47.514;19.218;2023-01-28T02:34:17;0.86;89.37
68189;DHT22;66299;47.514;19.218;2023-01-28T02:36:48;0.88;89.74
68189;DHT22;66299;47.514;19.218;2023-01-28T02:39:19;0.85;89.75
68189;DHT22;66299;47.514;19.218;2023-01-28T02:41:52;0.86;89.99
68189;DHT22;66299;47.514;19.218;2023-01-28T02:44:22;0.85;89.73
68189;DHT22;66299;47.514;19.218;2023-01-28T02:46:51;0.88;90.11
68189;DHT22;66299;47.514;19.218;2023-01-28T02:49:44;0.82;90.13
68189;DHT22;66299;47.514;19.218;2023-01-28T02:52:17;0.88;89.95
68189;DHT22;66299;47.514;19.218;2023-01-28T02:55:12;0.81;90.31
68189;DHT22;66299;47.514;19.218;2023-01-28T02:57:42;0.82;90.14
68189;DHT22;66299;47.514;19.218;2023-01-28T03:00:32;0.85;90.23
68189;DHT22;66299;47.514;19.218;2023-01-28T03:03:04;0.83;90.37
68189;DHT22;66299;47.514;19.218;2023-01-28T03:05:36;0.86;90.30
68189;DHT22;66299;47.514;19.218;2023-01-28T03:08:10;0.81;90.45
68189;DHT22;66299;47.514;19.218;2023-01-28T03:10:52;0.76;91.02
68189;DHT22;66299;47.514;19.218;2023-01-28T03:13:43;0.81;90.97
68189;DHT22;66299;47.514;19.218;2023-01-28T03:16:32;0.79;90.98
68189;DHT22;66299;47.514;19.218;2023-01-28T03:19:22;0.81;91.26
68189;DHT22;66299;47.514;19.218;2023-01-28T03:22:08;0.81;91.14
68189;DHT22;66299;47.514;19.218;2023-01-28T03:24:57;0.76;91.28
68189;DHT22;66299;47.514;19.218;2023-01-28T03:27:45;0.82;91.40
68189;DHT22;66299;47.514;19.218;2023-01-28T03:30:36;0.76;91.73
68189;DHT22;66299;47.514;19.218;2023-01-28T03:33:25;0.76;91.64
68189;DHT22;66299;47.514;19.218;2023-01-28T03:36:18;0.89;91.23
68189;DHT22;66299;47.514;19.218;2023-01-28T03:39:04;0.85;91.29
68189;DHT22;66299;47.514;19.218;2023-01-28T03:41:32;0.81;91.32
68189;DHT22;66299;47.514;19.218;2023-01-28T03:44:03;0.83;91.35
68189;DHT22;66299;47.514;19.218;2023-01-28T03:46:50;0.82;91.47
68189;DHT22;66299;47.514;19.218;2023-01-28T03:49:21;0.78;91.45
68189;DHT22;66299;47.514;19.218;2023-01-28T03:51:49;0.82;91.60
68189;DHT22;66299;47.514;19.218;2023-01-28T03:54:19;0.78;91.74
68189;DHT22;66299;47.514;19.218;2023-01-28T03:56:49;0.76;91.50
68189;DHT22;66299;47.514;19.218;2023-01-28T03:59:21;0.74;91.77
68189;DHT22;66299;47.514;19.218;2023-01-28T04:01:51;0.74;91.73
68189;DHT22;66299;47.514;19.218;2023-01-28T04:04:25;0.79;91.44
68189;DHT22;66299;47.514;19.218;2023-01-28T04:07:01;0.74;91.76
68189;DHT22;66299;47.514;19.218;2023-01-28T04:09:34;0.72;91.70
68189;DHT22;66299;47.514;19.218;2023-01-28T04:12:02;0.72;91.71
68189;DHT22;66299;47.514;19.218;2023-01-28T04:14:32;0.76;91.66
68189;DHT22;66299;47.514;19.218;2023-01-28T04:17:05;0.72;91.96
68189;DHT22;66299;47.514;19.218;2023-01-28T04:19:42;0.81;91.45
68189;DHT22;66299;47.514;19.218;2023-01-28T04:22:12;0.78;91.57
68189;DHT22;66299;47.514;19.218;2023-01-28T04:24:46;0.72;91.63
68189;DHT22;66299;47.514;19.218;2023-01-28T04:27:14;0.75;91.78
68189;DHT22;66299;47.514;19.218;2023-01-28T04:29:45;0.72;91.86
68189;DHT22;66299;47.514;19.218;2023-01-28T04:32:19;0.72;91.82
68189;DHT22;66299;47.514;19.218;2023-01-28T04:34:52;0.78;91.83
68189;DHT22;66299;47.514;19.218;2023-01-28T04:37:23;0.74;91.80
68189;DHT22;66299;47.514;19.218;2023-01-28T04:39:51;0.76;91.85
68189;DHT22;66299;47.514;19.218;2023-01-28T04:42:22;0.82;91.51
68189;DHT22;66299;47.514;19.218;2023-01-28T04:44:50;0.75;91.93
68189;DHT22;66299;47.514;19.218;2023-01-28T04:47:23;0.72;92.03
68189;DHT22;66299;47.514;19.218;2023-01-28T04:49:56;0.78;91.66
68189;DHT22;66299;47.514;19.218;2023-01-28T04:52:25;0.76;91.75
68189;DHT22;66299;47.514;19.218;2023-01-28T04:54:56;0.76;91.61
68189;DHT22;66299;47.514;19.218;2023-01-28T04:57:28;0.76;91.84
68189;DHT22;66299;47.514;19.218;2023-01-28T04:59:58;0.81;91.49
68189;DHT22;66299;47.514;19.218;2023-01-28T05:02:27;0.81;91.76
68189;DHT22;66299;47.514;19.218;2023-01-28T05:04:58;0.74;91.84
68189;DHT22;66299;47.514;19.218;2023-01-28T05:07:33;0.74;92.01
68189;DHT22;66299;47.514;19.218;2023-01-28T05:10:03;0.75;91.90
68189;DHT22;66299;47.514;19.218;2023-01-28T05:12:33;0.72;92.06
68189;DHT22;66299;47.514;19.218;2023-01-28T05:15:04;0.69;92.35
68189;DHT22;66299;47.514;19.218;2023-01-28T05:17:38;0.68;92.58
68189;DHT22;66299;47.514;19.218;2023-01-28T05:20:13;0.68;92.43
68189;DHT22;66299;47.514;19.218;2023-01-28T05:22:44;0.65;92.72
68189;DHT22;66299;47.514;19.218;2023-01-28T05:25:19;0.64;92.82
68189;DHT22;66299;47.514;19.218;2023-01-28T05:27:52;0.62;92.92
68189;DHT22;66299;47.514;19.218;2023-01-28T05:30:26;0.64;92.91
68189;DHT22;66299;47.514;19.218;2023-01-28T05:32:57;0.64;92.77
68189;DHT22;66299;47.514;19.218;2023-01-28T05:35:27;0.61;92.88
68189;DHT22;66299;47.514;19.218;2023-01-28T05:37:56;0.62;93.12
68189;DHT22;66299;47.514;19.218;2023-01-28T05:40:27;0.61;93.10
68189;DHT22;66299;47.514;19.218;2023-01-28T05:42:57;0.61;92.95
68189;DHT22;66299;47.514;19.218;2023-01-28T05:45:25;0.62;92.84
68189;DHT22;66299;47.514;19.218;2023-01-28T05:47:55;0.61;92.79
68189;DHT22;66299;47.514;19.218;2023-01-28T05:50:24;0.65;92.61
68189;DHT22;66299;47.514;19.218;2023-01-28T05:52:59;0.64;92.61
68189;DHT22;66299;47.514;19.218;2023-01-28T05:55:27;0.69;92.53
68189;DHT22;66299;47.514;19.218;2023-01-28T05:57:59;0.62;92.81
68189;DHT22;66299;47.514;19.218;2023-01-28T06:00:27;0.65;92.63
68189;DHT22;66299;47.514;19.218;2023-01-28T06:02:57;0.66;92.62
68189;DHT22;66299;47.514;19.218;2023-01-28T06:05:28;0.74;92.29
68189;DHT22;66299;47.514;19.218;2023-01-28T06:07:58;0.66;92.53
68189;DHT22;66299;47.514;19.218;2023-01-28T06:10:28;0.72;92.88
68189;DHT22;66299;47.514;19.218;2023-01-28T06:12:58;0.66;92.61
68189;DHT22;66299;47.514;19.218;2023-01-28T06:15:27;0.71;92.81
68189;DHT22;66299;47.514;19.218;2023-01-28T06:17:58;0.72;92.78
68189;DHT22;66299;47.514;19.218;2023-01-28T06:20:27;0.71;92.83
68189;DHT22;66299;47.514;19.218;2023-01-28T06:22:55;0.74;92.73
68189;DHT22;66299;47.514;19.218;2023-01-28T06:25:28;0.68;92.74
68189;DHT22;66299;47.514;19.218;2023-01-28T06:28:02;0.75;92.45
68189;DHT22;66299;47.514;19.218;2023-01-28T06:30:31;0.72;92.84
68189;DHT22;66299;47.514;19.218;2023-01-28T06:33:00;0.76;92.84
68189;DHT22;66299;47.514;19.218;2023-01-28T06:35:29;0.79;92.75
68189;DHT22;66299;47.514;19.218;2023-01-28T06:37:59;0.79;92.60
68189;DHT22;66299;47.514;19.218;2023-01-28T06:40:38;0.79;92.58
68189;DHT22;66299;47.514;19.218;2023-01-28T06:43:11;0.83;92.17
68189;DHT22;66299;47.514;19.218;2023-01-28T06:45:43;0.82;92.40
68189;DHT22;66299;47.514;19.218;2023-01-28T06:48:12;0.91;91.63
68189;DHT22;66299;47.514;19.218;2023-01-28T06:50:45;0.91;91.59
68189;DHT22;66299;47.514;19.218;2023-01-28T06:53:13;0.88;91.98
68189;DHT22;66299;47.514;19.218;2023-01-28T06:55:51;0.91;91.82
68189;DHT22;66299;47.514;19.218;2023-01-28T06:58:20;0.86;92.07
68189;DHT22;66299;47.514;19.218;2023-01-28T07:00:48;0.89;92.32
68189;DHT22;66299;47.514;19.218;2023-01-28T07:03:18;0.88;92.51
68189;DHT22;66299;47.514;19.218;2023-01-28T07:05:53;0.88;92.46
68189;DHT22;66299;47.514;19.218;2023-01-28T07:08:22;0.89;92.67
68189;DHT22;66299;47.514;19.218;2023-01-28T07:10:55;0.89;92.72
68189;DHT22;66299;47.514;19.218;2023-01-28T07:13:23;0.86;93.15
68189;DHT22;66299;47.514;19.218;2023-01-28T07:15:51;0.88;93.56
68189;DHT22;66299;47.514;19.218;2023-01-28T07:18:21;0.89;93.09
68189;DHT22;66299;47.514;19.218;2023-01-28T07:20:54;0.85;93.40
68189;DHT22;66299;47.514;19.218;2023-01-28T07:23:26;0.92;93.46
68189;DHT22;66299;47.514;19.218;2023-01-28T07:26:01;0.92;93.72
68189;DHT22;66299;47.514;19.218;2023-01-28T07:28:32;0.93;93.76
68189;DHT22;66299;47.514;19.218;2023-01-28T07:31:04;0.96;93.92
68189;DHT22;66299;47.514;19.218;2023-01-28T07:33:37;0.99;93.88
68189;DHT22;66299;47.514;19.218;2023-01-28T07:36:07;0.95;93.47
68189;DHT22;66299;47.514;19.218;2023-01-28T07:38:41;0.93;93.74
68189;DHT22;66299;47.514;19.218;2023-01-28T07:41:11;0.96;94.02
68189;DHT22;66299;47.514;19.218;2023-01-28T07:43:41;0.97;93.87
68189;DHT22;66299;47.514;19.218;2023-01-28T07:46:11;0.97;93.91
68189;DHT22;66299;47.514;19.218;2023-01-28T07:48:41;1.00;94.54
68189;DHT22;66299;47.514;19.218;2023-01-28T07:51:12;0.97;94.72
68189;DHT22;66299;47.514;19.218;2023-01-28T07:53:42;0.95;95.14
68189;DHT22;66299;47.514;19.218;2023-01-28T07:56:16;0.92;94.94
68189;DHT22;66299;47.514;19.218;2023-01-28T07:58:48;0.91;95.15
68189;DHT22;66299;47.514;19.218;2023-01-28T08:01:16;0.95;95.04
68189;DHT22;66299;47.514;19.218;2023-01-28T08:03:47;0.97;94.97
68189;DHT22;66299;47.514;19.218;2023-01-28T08:06:19;1.00;94.97
68189;DHT22;66299;47.514;19.218;2023-01-28T08:08:51;1.04;95.05
68189;DHT22;66299;47.514;19.218;2023-01-28T08:11:22;1.04;94.80
68189;DHT22;66299;47.514;19.218;2023-01-28T08:14:00;1.04;94.51
68189;DHT22;66299;47.514;19.218;2023-01-28T08:16:28;1.04;94.71
68189;DHT22;66299;47.514;19.218;2023-01-28T08:18:59;1.09;94.55
68189;DHT22;66299;47.514;19.218;2023-01-28T08:21:33;1.00;94.48
68189;DHT22;66299;47.514;19.218;2023-01-28T08:24:02;0.99;94.05
68189;DHT22;66299;47.514;19.218;2023-01-28T08:26:38;1.00;94.16
68189;DHT22;66299;47.514;19.218;2023-01-28T08:29:07;1.04;94.30
68189;DHT22;66299;47.514;19.218;2023-01-28T08:31:37;1.07;94.43
68189;DHT22;66299;47.514;19.218;2023-01-28T08:34:07;1.15;94.43
68189;DHT22;66299;47.514;19.218;2023-01-28T08:36:36;1.10;94.47
68189;DHT22;66299;47.514;19.218;2023-01-28T08:39:04;1.10;94.73
68189;DHT22;66299;47.514;19.218;2023-01-28T08:41:36;1.15;94.50
68189;DHT22;66299;47.514;19.218;2023-01-28T08:44:05;1.22;94.72
68189;DHT22;66299;47.514;19.218;2023-01-28T08:46:35;1.06;94.63
68189;DHT22;66299;47.514;19.218;2023-01-28T08:49:03;1.00;94.57
68189;DHT22;66299;47.514;19.218;2023-01-28T08:51:34;1.09;94.82
68189;DHT22;66299;47.514;19.218;2023-01-28T08:54:03;1.07;94.52
68189;DHT22;66299;47.514;19.218;2023-01-28T08:56:31;1.00;94.12
68189;DHT22;66299;47.514;19.218;2023-01-28T08:59:08;1.06;94.35
68189;DHT22;66299;47.514;19.218;2023-01-28T09:01:39;1.09;94.30
68189;DHT22;66299;47.514;19.218;2023-01-28T09:04:09;1.12;94.32
68189;DHT22;66299;47.514;19.218;2023-01-28T09:06:38;1.13;94.83
68189;DHT22;66299;47.514;19.218;2023-01-28T09:09:06;1.19;94.50
68189;DHT22;66299;47.514;19.218;2023-01-28T09:11:43;1.19;94.30
68189;DHT22;66299;47.514;19.218;2023-01-28T09:14:14;1.24;94.73
68189;DHT22;66299;47.514;19.218;2023-01-28T09:16:43;1.13;93.84
68189;DHT22;66299;47.514;19.218;2023-01-28T09:19:21;1.02;94.09
68189;DHT22;66299;47.514;19.218;2023-01-28T09:21:51;0.99;94.23
68189;DHT22;66299;47.514;19.218;2023-01-28T09:24:22;1.09;94.81
68189;DHT22;66299;47.514;19.218;2023-01-28T09:26:50;1.15;94.89
68189;DHT22;66299;47.514;19.218;2023-01-28T09:29:21;1.16;94.85
68189;DHT22;66299;47.514;19.218;2023-01-28T09:31:57;1.20;94.19
68189;DHT22;66299;47.514;19.218;2023-01-28T09:34:27;1.17;94.46
68189;DHT22;66299;47.514;19.218;2023-01-28T09:36:56;1.17;94.39
68189;DHT22;66299;47.514;19.218;2023-01-28T09:39:26;1.22;94.62
68189;DHT22;66299;47.514;19.218;2023-01-28T09:41:57;1.24;94.31
68189;DHT22;66299;47.514;19.218;2023-01-28T09:44:33;1.22;94.70
68189;DHT22;66299;47.514;19.218;2023-01-28T09:47:11;1.30;94.54
68189;DHT22;66299;47.514;19.218;2023-01-28T09:49:44;1.41;94.16
68189;DHT22;66299;47.514;19.218;2023-01-28T09:52:17;1.43;94.17
68189;DHT22;66299;47.514;19.218;2023-01-28T09:54:51;1.47;94.95
68189;DHT22;66299;47.514;19.218;2023-01-28T09:57:20;1.58;94.26
68189;DHT22;66299;47.514;19.218;2023-01-28T09:59:50;1.55;93.52
68189;DHT22;66299;47.514;19.218;2023-01-28T10:02:27;1.58;92.66
68189;DHT22;66299;47.514;19.218;2023-01-28T10:04:59;1.82;93.46
68189;DHT22;66299;47.514;19.218;2023-01-28T10:07:33;1.81;92.53
68189;DHT22;66299;47.514;19.218;2023-01-28T10:10:05;1.78;91.95
68189;DHT22;66299;47.514;19.218;2023-01-28T10:12:46;1.94;92.17
68189;DHT22;66299;47.514;19.218;2023-01-28T10:15:38;2.13;92.81
68189;DHT22;66299;47.514;19.218;2023-01-28T10:18:11;1.95;92.05
68189;DHT22;66299;47.514;19.218;2023-01-28T10:20:45;1.98;91.93
68189;DHT22;66299;47.514;19.218;2023-01-28T10:23:17;2.06;91.82
68189;DHT22;66299;47.514;19.218;2023-01-28T10:25:51;2.19;91.27
68189;DHT22;66299;47.514;19.218;2023-01-28T10:28:24;1.97;90.43
68189;DHT22;66299;47.514;19.218;2023-01-28T10:30:56;2.15;91.02
68189;DHT22;66299;47.514;19.218;2023-01-28T10:33:30;2.25;90.70
68189;DHT22;66299;47.514;19.218;2023-01-28T10:36:01;2.25;90.42
68189;DHT22;66299;47.514;19.218;2023-01-28T10:38:31;2.33;89.98
68189;DHT22;66299;47.514;19.218;2023-01-28T10:41:00;2.26;90.31
68189;DHT22;66299;47.514;19.218;2023-01-28T10:43:31;2.27;90.44
68189;DHT22;66299;47.514;19.218;2023-01-28T10:46:07;2.19;89.99
68189;DHT22;66299;47.514;19.218;2023-01-28T10:48:40;2.32;90.47
68189;DHT22;66299;47.514;19.218;2023-01-28T10:51:14;2.34;90.05
68189;DHT22;66299;47.514;19.218;2023-01-28T10:53:48;2.44;90.16
68189;DHT22;66299;47.514;19.218;2023-01-28T10:56:17;2.46;89.62
68189;DHT22;66299;47.514;19.218;2023-01-28T10:58:54;2.57;89.80
68189;DHT22;66299;47.514;19.218;2023-01-28T11:01:26;2.56;89.24
68189;DHT22;66299;47.514;19.218;2023-01-28T11:04:12;2.78;90.00
68189;DHT22;66299;47.514;19.218;2023-01-28T11:06:50;2.78;89.23
68189;DHT22;66299;47.514;19.218;2023-01-28T11:09:23;2.67;88.84
68189;DHT22;66299;47.514;19.218;2023-01-28T11:11:53;2.95;89.20
68189;DHT22;66299;47.514;19.218;2023-01-28T11:14:23;2.88;88.15
68189;DHT22;66299;47.514;19.218;2023-01-28T11:16:57;2.94;87.96
68189;DHT22;66299;47.514;19.218;2023-01-28T11:19:27;2.97;88.35
68189;DHT22;66299;47.514;19.218;2023-01-28T11:21:57;3.01;87.19
68189;DHT22;66299;47.514;19.218;2023-01-28T11:24:27;3.19;86.57
68189;DHT22;66299;47.514;19.218;2023-01-28T11:27:07;3.32;83.91
68189;DHT22;66299;47.514;19.218;2023-01-28T11:29:37;3.43;83.63
68189;DHT22;66299;47.514;19.218;2023-01-28T11:32:18;3.27;82.11
68189;DHT22;66299;47.514;19.218;2023-01-28T11:34:49;3.12;80.59
68189;DHT22;66299;47.514;19.218;2023-01-28T11:37:19;3.30;81.53
68189;DHT22;66299;47.514;19.218;2023-01-28T11:39:59;3.36;81.41
68189;DHT22;66299;47.514;19.218;2023-01-28T11:42:30;3.46;82.06
68189;DHT22;66299;47.514;19.218;2023-01-28T11:44:59;3.44;80.56
68189;DHT22;66299;47.514;19.218;2023-01-28T11:47:36;3.33;79.75
68189;DHT22;66299;47.514;19.218;2023-01-28T11:50:17;3.37;80.24
68189;DHT22;66299;47.514;19.218;2023-01-28T11:52:53;3.35;79.40
68189;DHT22;66299;47.514;19.218;2023-01-28T11:55:42;3.64;79.34
68189;DHT22;66299;47.514;19.218;2023-01-28T11:58:18;3.63;78.80
68189;DHT22;66299;47.514;19.218;2023-01-28T12:00:51;3.78;80.68
68189;DHT22;66299;47.514;19.218;2023-01-28T12:06:30;3.70;79.64
68189;DHT22;66299;47.514;19.218;2023-01-28T12:09:06;3.84;79.80
68189;DHT22;66299;47.514;19.218;2023-01-28T12:11:42;3.95;79.73
68189;DHT22;66299;47.514;19.218;2023-01-28T12:14:32;3.91;78.50
68189;DHT22;66299;47.514;19.218;2023-01-28T12:17:08;3.85;78.43
68189;DHT22;66299;47.514;19.218;2023-01-28T12:19:42;3.75;78.42
68189;DHT22;66299;47.514;19.218;2023-01-28T12:25:11;3.75;77.96
68189;DHT22;66299;47.514;19.218;2023-01-28T12:27:48;3.81;78.79
68189;DHT22;66299;47.514;19.218;2023-01-28T12:30:23;3.71;78.07
68189;DHT22;66299;47.514;19.218;2023-01-28T12:33:00;3.75;78.41
68189;DHT22;66299;47.514;19.218;2023-01-28T12:35:41;3.83;79.10
68189;DHT22;66299;47.514;19.218;2023-01-28T12:38:19;3.83;78.47
68189;DHT22;66299;47.514;19.218;2023-01-28T12:40:56;3.67;76.54
68189;DHT22;66299;47.514;19.218;2023-01-28T12:43:32;3.70;77.25
68189;DHT22;66299;47.514;19.218;2023-01-28T12:46:07;3.73;77.08
68189;DHT22;66299;47.514;19.218;2023-01-28T12:48:39;3.84;78.35
68189;DHT22;66299;47.514;19.218;2023-01-28T12:51:12;3.84;77.16
68189;DHT22;66299;47.514;19.218;2023-01-28T12:53:47;3.66;76.84
68189;DHT22;66299;47.514;19.218;2023-01-28T12:56:23;3.78;78.15
68189;DHT22;66299;47.514;19.218;2023-01-28T12:58:55;3.78;78.56
68189;DHT22;66299;47.514;19.218;2023-01-28T13:01:28;3.87;79.10
68189;DHT22;66299;47.514;19.218;2023-01-28T13:04:03;3.77;77.92
68189;DHT22;66299;47.514;19.218;2023-01-28T13:06:33;3.84;78.15
68189;DHT22;66299;47.514;19.218;2023-01-28T13:09:09;3.75;78.14
68189;DHT22;66299;47.514;19.218;2023-01-28T13:11:39;3.59;77.07
68189;DHT22;66299;47.514;19.218;2023-01-28T13:14:23;3.67;77.26
68189;DHT22;66299;47.514;19.218;2023-01-28T13:16:55;3.67;77.25
68189;DHT22;66299;47.514;19.218;2023-01-28T13:19:25;3.73;76.79
68189;DHT22;66299;47.514;19.218;2023-01-28T13:22:08;3.80;77.00
68189;DHT22;66299;47.514;19.218;2023-01-28T13:24:39;3.62;76.78
68189;DHT22;66299;47.514;19.218;2023-01-28T13:27:19;3.63;76.85
68189;DHT22;66299;47.514;19.218;2023-01-28T13:30:01;3.75;78.64
68189;DHT22;66299;47.514;19.218;2023-01-28T13:32:31;3.75;77.14
68189;DHT22;66299;47.514;19.218;2023-01-28T13:35:04;3.70;77.09
68189;DHT22;66299;47.514;19.218;2023-01-28T13:37:35;3.81;77.09
68189;DHT22;66299;47.514;19.218;2023-01-28T13:40:16;3.78;76.20
68189;DHT22;66299;47.514;19.218;2023-01-28T13:42:59;3.84;76.93
68189;DHT22;66299;47.514;19.218;2023-01-28T13:45:28;3.88;76.46
68189;DHT22;66299;47.514;19.218;2023-01-28T13:47:59;3.81;76.08
68189;DHT22;66299;47.514;19.218;2023-01-28T13:50:32;3.77;75.80
68189;DHT22;66299;47.514;19.218;2023-01-28T13:53:03;3.83;76.37
68189;DHT22;66299;47.514;19.218;2023-01-28T13:55:34;3.73;76.39
68189;DHT22;66299;47.514;19.218;2023-01-28T13:58:19;3.74;75.95
68189;DHT22;66299;47.514;19.218;2023-01-28T14:01:07;3.78;75.69
68189;DHT22;66299;47.514;19.218;2023-01-28T14:09:21;3.78;76.25
68189;DHT22;66299;47.514;19.218;2023-01-28T14:12:07;3.75;76.50
68189;DHT22;66299;47.514;19.218;2023-01-28T14:14:50;3.71;76.12
68189;DHT22;66299;47.514;19.218;2023-01-28T14:17:27;3.66;76.45
68189;DHT22;66299;47.514;19.218;2023-01-28T14:20:02;3.74;76.87
68189;DHT22;66299;47.514;19.218;2023-01-28T14:22:39;3.75;76.48
68189;DHT22;66299;47.514;19.218;2023-01-28T14:25:11;3.67;76.68
68189;DHT22;66299;47.514;19.218;2023-01-28T14:27:41;3.63;76.89
68189;DHT22;66299;47.514;19.218;2023-01-28T14:30:15;3.60;77.18
68189;DHT22;66299;47.514;19.218;2023-01-28T14:32:46;3.57;77.06
68189;DHT22;66299;47.514;19.218;2023-01-28T14:35:17;3.54;77.63
68189;DHT22;66299;47.514;19.218;2023-01-28T14:37:50;3.54;78.77
68189;DHT22;66299;47.514;19.218;2023-01-28T14:40:18;3.46;78.94
68189;DHT22;66299;47.514;19.218;2023-01-28T14:42:57;3.43;79.23
68189;DHT22;66299;47.514;19.218;2023-01-28T14:45:32;3.42;79.71
68189;DHT22;66299;47.514;19.218;2023-01-28T14:53:49;3.43;80.62
68189;DHT22;66299;47.514;19.218;2023-01-28T14:56:22;3.40;81.11
68189;DHT22;66299;47.514;19.218;2023-01-28T14:58:55;3.36;80.69
68189;DHT22;66299;47.514;19.218;2023-01-28T15:01:28;3.32;81.18
68189;DHT22;66299;47.514;19.218;2023-01-28T15:03:58;3.26;79.40
68189;DHT22;66299;47.514;19.218;2023-01-28T15:06:32;3.27;79.31
68189;DHT22;66299;47.514;19.218;2023-01-28T15:09:06;3.23;79.89
68189;DHT22;66299;47.514;19.218;2023-01-28T15:11:35;3.23;79.71
68189;DHT22;66299;47.514;19.218;2023-01-28T15:14:07;3.19;79.39
68189;DHT22;66299;47.514;19.218;2023-01-28T15:16:45;3.11;80.19
68189;DHT22;66299;47.514;19.218;2023-01-28T15:19:16;3.09;80.17
68189;DHT22;66299;47.514;19.218;2023-01-28T15:21:45;3.12;80.25
68189;DHT22;66299;47.514;19.218;2023-01-28T15:24:17;3.06;80.22
68189;DHT22;66299;47.514;19.218;2023-01-28T15:26:47;3.08;80.31
68189;DHT22;66299;47.514;19.218;2023-01-28T15:29:25;3.05;80.51
68189;DHT22;66299;47.514;19.218;2023-01-28T15:31:58;3.04;80.62
68189;DHT22;66299;47.514;19.218;2023-01-28T15:34:28;3.05;80.45
68189;DHT22;66299;47.514;19.218;2023-01-28T15:36:57;3.05;80.78
68189;DHT22;66299;47.514;19.218;2023-01-28T15:39:27;3.05;80.20
68189;DHT22;66299;47.514;19.218;2023-01-28T15:42:02;3.08;80.11
68189;DHT22;66299;47.514;19.218;2023-01-28T15:44:32;2.97;80.59
68189;DHT22;66299;47.514;19.218;2023-01-28T15:47:03;2.99;80.66
68189;DHT22;66299;47.514;19.218;2023-01-28T15:49:43;2.94;81.42
68189;DHT22;66299;47.514;19.218;2023-01-28T15:52:17;2.94;80.75
68189;DHT22;66299;47.514;19.218;2023-01-28T15:54:47;2.83;82.45
68189;DHT22;66299;47.514;19.218;2023-01-28T15:57:18;2.84;83.47
68189;DHT22;66299;47.514;19.218;2023-01-28T15:59:51;2.80;84.08
68189;DHT22;66299;47.514;19.218;2023-01-28T16:02:33;2.74;84.67
68189;DHT22;66299;47.514;19.218;2023-01-28T16:05:25;2.71;84.81
68189;DHT22;66299;47.514;19.218;2023-01-28T16:08:01;2.67;85.45
68189;DHT22;66299;47.514;19.218;2023-01-28T16:10:30;2.67;85.72
68189;DHT22;66299;47.514;19.218;2023-01-28T16:13:00;2.58;86.09
68189;DHT22;66299;47.514;19.218;2023-01-28T16:15:32;2.57;86.29
68189;DHT22;66299;47.514;19.218;2023-01-28T16:18:25;2.61;86.76
68189;DHT22;66299;47.514;19.218;2023-01-28T16:20:57;2.57;86.93
68189;DHT22;66299;47.514;19.218;2023-01-28T16:23:26;2.54;86.85
68189;DHT22;66299;47.514;19.218;2023-01-28T16:25:59;2.51;87.32
68189;DHT22;66299;47.514;19.218;2023-01-28T16:28:30;2.44;87.42